Time;durP1;ratioP1;P1;durP2;ratioP2;P2;SDS_P1;SDS_P2;PMS_P1;PMS_P2;Temp;Humidity;BMP_temperature;BMP_pressure;BME280_temperature;BME280_humidity;BME280_pressure;Samples;Min_cycle;Max_cycle;Signal;HPM_P1;HPM_P2
2023/07/12 00:00:58;;;;;;;6.40;3.28;;;29.70;94.30;;;;;;5020832;28;20366;-83
2023/07/12 00:03:24;;;;;;;3.97;3.13;;;29.70;94.40;;;;;;5019375;28;20038;-83
2023/07/12 00:05:51;;;;;;;6.18;3.42;;;29.60;94.40;;;;;;5016999;28;20033;-83
2023/07/12 00:08:22;;;;;;;5.18;3.50;;;29.60;94.40;;;;;;5020079;28;20034;-83
2023/07/12 00:10:50;;;;;;;5.03;3.63;;;29.60;94.60;;;;;;5002680;28;20037;-83
2023/07/12 00:13:16;;;;;;;9.38;3.60;;;29.60;94.60;;;;;;5009722;28;20034;-83
2023/07/12 00:15:44;;;;;;;5.97;3.30;;;29.60;94.60;;;;;;5013256;28;20431;-83
2023/07/12 00:18:16;;;;;;;4.75;3.83;;;29.60;94.60;;;;;;5023818;28;20021;-83
2023/07/12 00:20:42;;;;;;;4.97;3.50;;;29.60;94.60;;;;;;5029444;28;20032;-83
2023/07/12 00:23:11;;;;;;;5.78;3.90;;;29.60;94.60;;;;;;5016777;28;20032;-82
2023/07/12 00:25:37;;;;;;;9.95;3.92;;;29.60;94.60;;;;;;5012948;28;20113;-83
2023/07/12 00:28:09;;;;;;;7.07;3.97;;;29.60;94.60;;;;;;5022396;28;20540;-83
2023/07/12 00:30:35;;;;;;;5.03;3.70;;;29.70;94.70;;;;;;4999932;28;20478;-83
2023/07/12 00:33:04;;;;;;;7.00;4.13;;;29.60;94.60;;;;;;5014702;28;20426;-83
2023/07/12 00:35:31;;;;;;;7.63;3.88;;;29.60;94.50;;;;;;5013105;28;20029;-83
2023/07/12 00:37:59;;;;;;;5.78;3.83;;;29.70;94.50;;;;;;5020815;28;20518;-83
2023/07/12 00:40:41;;;;;;;6.43;3.78;;;29.60;94.40;;;;;;5015382;28;20034;-83
2023/07/12 00:43:31;;;;;;;7.97;4.10;;;29.70;94.30;;;;;;5025355;28;20040;-84
2023/07/12 00:45:58;;;;;;;;;;;29.70;94.00;;;;;;5020046;28;20092;-84
2023/07/12 00:48:24;;;;;;;6.70;3.85;;;29.60;93.90;;;;;;5024061;28;19909;-84
2023/07/12 00:50:50;;;;;;;5.50;4.03;;;29.60;93.80;;;;;;5023672;28;20022;-84
2023/07/12 00:53:19;;;;;;;5.43;3.72;;;29.60;94.00;;;;;;5022164;28;20367;-84
2023/07/12 00:56:00;;;;;;;6.28;3.80;;;29.50;93.70;;;;;;5016102;28;20033;-84
2023/07/12 00:58:30;;;;;;;4.70;3.75;;;29.40;93.80;;;;;;5016329;28;20041;-83
2023/07/12 01:00:57;;;;;;;8.57;4.32;;;29.40;93.80;;;;;;5016128;28;20022;-83
2023/07/12 01:03:26;;;;;;;10.48;4.38;;;29.40;93.90;;;;;;5020355;28;20148;-83
2023/07/12 01:05:52;;;;;;;4.47;3.70;;;29.40;94.00;;;;;;4995426;28;20389;-83
2023/07/12 01:08:20;;;;;;;5.03;4.03;;;29.40;94.10;;;;;;5025891;28;20041;-83
2023/07/12 01:10:45;;;;;;;7.10;4.03;;;29.40;94.10;;;;;;5013979;28;20033;-83
2023/07/12 01:13:11;;;;;;;6.07;3.88;;;29.40;94.00;;;;;;5024554;28;20374;-84
2023/07/12 01:15:37;;;;;;;4.97;3.55;;;29.40;94.00;;;;;;5012761;28;20042;-84
2023/07/12 01:18:04;;;;;;;4.10;3.47;;;29.30;93.90;;;;;;5020483;28;20238;-83
2023/07/12 01:20:36;;;;;;;4.25;3.20;;;29.30;93.70;;;;;;5004893;28;20034;-84
2023/07/12 01:23:04;;;;;;;5.97;4.28;;;29.30;93.80;;;;;;5017645;28;20049;-84
2023/07/12 01:25:40;;;;;;;4.03;3.63;;;29.30;93.70;;;;;;5009120;28;20042;-84
2023/07/12 01:28:06;;;;;;;5.18;3.97;;;29.30;93.60;;;;;;5027230;28;20033;-84
2023/07/12 01:30:32;;;;;;;4.95;3.50;;;29.30;93.70;;;;;;5013858;28;20025;-83
2023/07/12 01:32:58;;;;;;;5.22;4.10;;;29.30;93.60;;;;;;5020735;28;20061;-83
2023/07/12 01:35:24;;;;;;;4.60;3.72;;;29.20;93.50;;;;;;5030228;28;20480;-83
2023/07/12 01:37:50;;;;;;;5.43;3.75;;;29.10;93.30;;;;;;5033817;28;20030;-83
2023/07/12 01:40:16;;;;;;;7.18;4.00;;;29.10;93.50;;;;;;5035758;28;20107;-83
2023/07/12 01:42:41;;;;;;;4.60;3.35;;;29.10;93.40;;;;;;5028246;28;20051;-83
2023/07/12 01:45:08;;;;;;;5.75;4.32;;;29.00;93.40;;;;;;5035550;28;20450;-83
2023/07/12 01:47:34;;;;;;;4.07;3.67;;;29.00;93.30;;;;;;5036113;28;20067;-84
2023/07/12 01:49:59;;;;;;;4.55;3.65;;;28.90;93.30;;;;;;5026481;28;20045;-84
2023/07/12 01:52:25;;;;;;;5.68;3.33;;;28.90;93.30;;;;;;5000416;28;20042;-83
2023/07/12 01:54:51;;;;;;;4.75;3.40;;;28.90;93.30;;;;;;4998320;28;20030;-83
2023/07/12 01:57:16;;;;;;;4.35;3.70;;;28.90;93.40;;;;;;5025153;28;20060;-83
2023/07/12 01:59:42;;;;;;;11.52;4.35;;;28.90;93.20;;;;;;5027255;28;20029;-84
2023/07/12 02:02:08;;;;;;;6.38;4.00;;;28.90;93.30;;;;;;5018388;28;20473;-84
2023/07/12 02:04:34;;;;;;;5.57;4.03;;;28.90;93.30;;;;;;5030169;28;20366;-84
2023/07/12 02:07:03;;;;;;;4.97;4.20;;;28.90;93.30;;;;;;5015859;28;20030;-85
2023/07/12 02:09:34;;;;;;;10.20;4.50;;;28.80;93.20;;;;;;5031820;28;20028;-84
2023/07/12 02:12:00;;;;;;;4.43;3.47;;;28.80;93.30;;;;;;5022197;28;20385;-83
2023/07/12 02:14:26;;;;;;;5.55;3.90;;;28.70;93.30;;;;;;5015206;28;20038;-83
2023/07/12 02:16:52;;;;;;;4.57;3.55;;;28.70;93.30;;;;;;5018924;28;20417;-83
2023/07/12 02:19:17;;;;;;;6.22;3.92;;;28.70;93.40;;;;;;5025366;28;20029;-82
2023/07/12 02:21:43;;;;;;;5.75;3.42;;;28.60;93.40;;;;;;5028085;28;20104;-82
2023/07/12 02:24:08;;;;;;;5.88;4.13;;;28.60;93.50;;;;;;5014245;28;20064;-83
2023/07/12 02:26:39;;;;;;;8.57;4.13;;;28.60;93.40;;;;;;5000083;28;20481;-82
2023/07/12 02:29:05;;;;;;;5.78;3.80;;;28.60;93.30;;;;;;5021106;28;20057;-82
2023/07/12 02:31:31;;;;;;;5.72;4.15;;;28.60;93.30;;;;;;5025408;28;20025;-82
2023/07/12 02:33:57;;;;;;;6.43;4.13;;;28.60;93.30;;;;;;5015354;28;20097;-82
2023/07/12 02:36:23;;;;;;;4.97;3.30;;;28.60;93.20;;;;;;5015103;28;20101;-83
2023/07/12 02:38:48;;;;;;;5.65;3.92;;;28.50;93.10;;;;;;5026716;28;20124;-83
2023/07/12 02:41:18;;;;;;;4.78;3.97;;;28.50;93.10;;;;;;5024772;28;20044;-82
2023/07/12 02:43:44;;;;;;;7.43;3.40;;;28.50;93.10;;;;;;4997435;28;20030;-83
2023/07/12 02:46:10;;;;;;;4.25;3.42;;;28.50;92.90;;;;;;5014976;28;20091;-84
2023/07/12 02:48:37;;;;;;;6.00;3.25;;;28.50;92.90;;;;;;5006045;28;20037;-83
2023/07/12 02:51:03;;;;;;;5.20;3.33;;;28.50;92.80;;;;;;5014257;28;20064;-83
2023/07/12 02:53:28;;;;;;;6.68;3.70;;;28.50;92.50;;;;;;5016346;28;20401;-83
2023/07/12 02:55:54;;;;;;;7.97;3.35;;;28.50;92.00;;;;;;5034274;28;20109;-84
2023/07/12 02:58:21;;;;;;;8.23;3.78;;;28.60;91.70;;;;;;5033494;28;20052;-84
2023/07/12 03:00:47;;;;;;;3.90;3.47;;;28.60;91.50;;;;;;5009009;28;20061;-84
2023/07/12 03:03:13;;;;;;;3.10;2.55;;;28.50;90.50;;;;;;5019719;28;20033;-84
2023/07/12 03:05:40;;;;;;;3.53;2.47;;;28.60;89.60;;;;;;5015891;28;20072;-84
2023/07/12 03:08:06;;;;;;;4.22;2.83;;;28.50;89.40;;;;;;5027103;28;20493;-84
2023/07/12 03:10:34;;;;;;;3.10;2.45;;;28.60;89.80;;;;;;5025514;28;20113;-84
2023/07/12 03:13:00;;;;;;;4.13;2.40;;;28.60;88.90;;;;;;4999562;28;20033;-83
2023/07/12 03:15:26;;;;;;;3.22;2.10;;;28.60;87.50;;;;;;5000124;28;20050;-84
2023/07/12 03:17:51;;;;;;;4.07;2.47;;;28.60;87.30;;;;;;5020049;28;20028;-84
2023/07/12 03:20:17;;;;;;;2.95;1.95;;;28.60;86.40;;;;;;5025031;28;20504;-83
2023/07/12 03:22:43;;;;;;;2.45;1.73;;;28.60;84.50;;;;;;5032807;28;20051;-83
2023/07/12 03:25:08;;;;;;;2.83;2.10;;;28.60;83.60;;;;;;5010029;28;20150;-84
2023/07/12 03:27:34;;;;;;;3.78;1.90;;;28.60;82.70;;;;;;4996606;28;20084;-83
2023/07/12 03:30:00;;;;;;;3.63;2.15;;;28.60;82.10;;;;;;5022861;28;20366;-83
2023/07/12 03:32:25;;;;;;;3.90;1.83;;;28.50;81.20;;;;;;5024984;28;20033;-84
2023/07/12 03:34:52;;;;;;;3.05;1.95;;;28.60;81.00;;;;;;5003646;28;20026;-83
2023/07/12 03:37:18;;;;;;;3.28;2.00;;;28.60;80.90;;;;;;4996641;28;20041;-83
2023/07/12 03:39:44;;;;;;;3.58;2.03;;;28.60;80.70;;;;;;5019425;28;20034;-84
2023/07/12 03:42:09;;;;;;;4.65;2.00;;;28.60;81.00;;;;;;5019855;28;20038;-83
2023/07/12 03:44:35;;;;;;;2.55;1.95;;;28.60;80.70;;;;;;5014886;28;20034;-84
2023/07/12 03:47:01;;;;;;;3.38;2.30;;;28.50;80.10;;;;;;5030373;28;20046;-82
2023/07/12 03:49:27;;;;;;;5.47;2.00;;;28.50;80.90;;;;;;5023363;28;20033;-83
2023/07/12 03:51:53;;;;;;;4.95;2.20;;;28.50;81.40;;;;;;5036225;28;20045;-83
2023/07/12 03:54:21;;;;;;;2.65;2.00;;;28.60;81.40;;;;;;5017818;28;20022;-84
2023/07/12 03:56:47;;;;;;;2.75;2.15;;;28.50;81.10;;;;;;4999251;28;20034;-85
2023/07/12 03:59:13;;;;;;;2.97;2.03;;;28.50;80.90;;;;;;5031959;28;20018;-84
2023/07/12 04:01:39;;;;;;;3.10;2.17;;;28.50;80.40;;;;;;5028348;28;20032;-83
2023/07/12 04:04:04;;;;;;;8.75;2.05;;;28.50;80.80;;;;;;5026380;28;20021;-83
2023/07/12 04:06:31;;;;;;;4.85;2.00;;;28.50;80.50;;;;;;5020546;28;21875;-84
2023/07/12 04:08:56;;;;;;;2.72;2.03;;;28.50;80.20;;;;;;5015541;28;20026;-83
2023/07/12 04:11:28;;;;;;;6.05;2.30;;;28.50;79.80;;;;;;5019571;28;20037;-83
2023/07/12 04:13:54;;;;;;;6.22;2.88;;;28.40;79.70;;;;;;5015259;28;20076;-83
2023/07/12 04:16:21;;;;;;;5.22;2.95;;;28.40;80.80;;;;;;4995945;28;20044;-82
2023/07/12 04:18:47;;;;;;;7.55;2.60;;;28.40;81.50;;;;;;5002215;28;20039;-83
2023/07/12 04:21:13;;;;;;;3.40;2.08;;;28.30;82.70;;;;;;5024227;28;20038;-83
2023/07/12 04:23:38;;;;;;;3.85;2.10;;;28.40;83.10;;;;;;5016845;28;20033;-83
2023/07/12 04:26:05;;;;;;;5.43;2.33;;;28.40;83.60;;;;;;5022205;28;20057;-83
2023/07/12 04:28:35;;;;;;;4.25;2.00;;;28.40;83.80;;;;;;5016863;28;20436;-83
2023/07/12 04:31:03;;;;;;;3.78;1.90;;;28.40;84.00;;;;;;5022108;28;20029;-82
2023/07/12 04:33:29;;;;;;;5.57;2.10;;;28.40;84.00;;;;;;5030504;28;20034;-82
2023/07/12 04:35:54;;;;;;;5.38;2.20;;;28.40;84.20;;;;;;5029486;28;20136;-83
2023/07/12 04:38:20;;;;;;;3.55;1.88;;;28.40;84.20;;;;;;5022259;28;20037;-82
2023/07/12 04:40:54;;;;;;;2.25;1.77;;;28.50;84.10;;;;;;5026418;28;20473;-82
2023/07/12 04:43:19;;;;;;;7.03;2.17;;;28.60;83.40;;;;;;5030029;28;20091;-83
2023/07/12 04:45:46;;;;;;;2.13;1.70;;;28.60;83.20;;;;;;5007082;28;20429;-83
2023/07/12 04:48:11;;;;;;;5.00;1.65;;;28.60;83.50;;;;;;5000263;28;20064;-83
2023/07/12 04:50:37;;;;;;;3.00;1.73;;;28.70;83.20;;;;;;5040893;28;20104;-83
2023/07/12 04:53:03;;;;;;;5.88;2.10;;;28.70;83.20;;;;;;5028081;28;20389;-83
2023/07/12 04:55:29;;;;;;;3.85;1.80;;;28.70;83.20;;;;;;5034606;28;20101;-82
2023/07/12 04:57:56;;;;;;;4.47;1.98;;;28.70;83.10;;;;;;5034066;28;20009;-83
2023/07/12 05:00:25;;;;;;;3.25;1.85;;;28.70;82.60;;;;;;5016610;28;20496;-84
2023/07/12 05:02:52;;;;;;;4.50;1.95;;;28.70;82.30;;;;;;5014768;28;20025;-84
2023/07/12 05:05:19;;;;;;;3.88;1.65;;;28.70;82.20;;;;;;5024669;28;20034;-84
2023/07/12 05:07:44;;;;;;;3.22;1.70;;;28.70;82.10;;;;;;5024397;28;20073;-84
2023/07/12 05:10:10;;;;;;;3.80;1.30;;;28.70;82.20;;;;;;5030633;28;20040;-84
2023/07/12 05:12:38;;;;;;;2.45;1.65;;;28.60;81.90;;;;;;5034626;28;20052;-86
2023/07/12 05:15:05;;;;;;;4.13;1.73;;;28.70;81.80;;;;;;5018519;28;20046;-86
2023/07/12 05:17:31;;;;;;;2.55;1.60;;;28.60;82.10;;;;;;5020437;28;20076;-92
2023/07/12 05:19:57;;;;;;;4.18;1.50;;;28.70;82.00;;;;;;5022166;28;20057;-91
2023/07/12 05:22:23;;;;;;;1.85;1.38;;;28.70;82.40;;;;;;5030009;28;20061;-89
2023/07/12 05:24:49;;;;;;;11.32;1.98;;;28.60;81.70;;;;;;5046150;28;20033;-91
2023/07/12 05:27:15;;;;;;;3.85;1.83;;;28.60;81.90;;;;;;5040609;28;20048;-89
2023/07/12 05:29:41;;;;;;;2.97;1.60;;;28.70;81.80;;;;;;5021599;28;20161;-89
2023/07/12 05:32:07;;;;;;;4.10;1.40;;;28.70;81.80;;;;;;5039893;28;20516;-86
2023/07/12 05:34:33;;;;;;;4.80;1.60;;;28.70;82.10;;;;;;5036690;28;20061;-87
2023/07/12 05:36:59;;;;;;;5.20;1.40;;;28.60;82.00;;;;;;5033262;28;20385;-83
2023/07/12 05:39:24;;;;;;;5.78;1.48;;;28.70;82.00;;;;;;5036141;28;20025;-83
2023/07/12 05:41:50;;;;;;;3.03;1.38;;;28.70;82.00;;;;;;5035262;28;20521;-83
2023/07/12 05:44:16;;;;;;;7.93;1.88;;;28.70;82.00;;;;;;5036494;28;20167;-83
2023/07/12 05:46:42;;;;;;;6.18;1.98;;;28.70;81.90;;;;;;5035240;28;20029;-83
2023/07/12 05:49:07;;;;;;;3.20;1.45;;;28.70;81.90;;;;;;5035739;28;20029;-83
2023/07/12 05:51:33;;;;;;;7.70;1.48;;;28.70;81.80;;;;;;5035671;28;20075;-83
2023/07/12 05:53:59;;;;;;;4.45;1.60;;;28.70;81.80;;;;;;5035781;28;20101;-83
2023/07/12 05:56:24;;;;;;;4.75;1.50;;;28.80;81.60;;;;;;5036136;28;20018;-83
2023/07/12 05:58:50;;;;;;;3.67;1.40;;;28.80;82.00;;;;;;5035259;28;20525;-83
2023/07/12 06:01:17;;;;;;;4.82;1.33;;;28.90;82.20;;;;;;5035664;28;20523;-83
2023/07/12 06:03:43;;;;;;;3.83;1.38;;;28.90;82.00;;;;;;5032786;28;20087;-83
2023/07/12 06:06:09;;;;;;;4.28;1.27;;;28.90;81.80;;;;;;5033217;28;20024;-83
2023/07/12 06:08:36;;;;;;;4.65;1.25;;;28.90;82.10;;;;;;5016839;28;20417;-83
2023/07/12 06:11:01;;;;;;;4.10;1.60;;;28.90;82.30;;;;;;5020692;28;20156;-83
2023/07/12 06:13:28;;;;;;;6.85;1.40;;;28.90;82.30;;;;;;5035276;28;20104;-83
2023/07/12 06:15:54;;;;;;;4.25;1.60;;;28.90;82.50;;;;;;5035132;28;20045;-83
2023/07/12 06:18:20;;;;;;;5.88;1.63;;;28.80;82.90;;;;;;5015945;28;20116;-83
2023/07/12 06:20:53;;;;;;;7.10;1.75;;;28.80;83.00;;;;;;4998269;28;20382;-83
2023/07/12 06:23:19;;;;;;;4.13;1.35;;;28.80;82.90;;;;;;5028372;28;20029;-83
2023/07/12 06:25:45;;;;;;;3.42;1.30;;;28.80;82.50;;;;;;5034826;28;20037;-83
2023/07/12 06:28:10;;;;;;;2.83;1.50;;;28.80;82.50;;;;;;5035145;28;20464;-83
2023/07/12 06:30:36;;;;;;;9.50;1.30;;;28.80;82.20;;;;;;5035760;28;20026;-82
2023/07/12 06:33:02;;;;;;;5.78;1.30;;;28.70;81.00;;;;;;5035385;28;20367;-83
2023/07/12 06:35:30;;;;;;;7.28;1.55;;;28.60;80.00;;;;;;5022647;28;20025;-83
2023/07/12 06:37:56;;;;;;;5.00;1.60;;;28.50;80.40;;;;;;4998147;28;20363;-83
2023/07/12 06:40:21;;;;;;;5.53;1.75;;;28.40;80.00;;;;;;5026761;28;20034;-83
2023/07/12 06:42:48;;;;;;;3.95;1.35;;;28.40;80.20;;;;;;5035323;28;20091;-83
2023/07/12 06:45:13;;;;;;;4.38;1.60;;;28.20;80.00;;;;;;5034964;28;20037;-83
2023/07/12 06:47:39;;;;;;;2.60;1.25;;;28.20;80.60;;;;;;5034626;28;20072;-83
2023/07/12 06:50:06;;;;;;;3.22;1.67;;;28.10;80.80;;;;;;5028616;28;20049;-83
2023/07/12 06:52:32;;;;;;;8.18;1.40;;;28.10;80.90;;;;;;5015472;28;20186;-83
2023/07/12 06:54:57;;;;;;;2.72;1.27;;;28.00;80.90;;;;;;5023778;28;20543;-83
2023/07/12 06:57:23;;;;;;;5.35;1.48;;;28.00;80.80;;;;;;5034400;28;20417;-83
2023/07/12 06:59:49;;;;;;;2.45;1.27;;;28.00;80.90;;;;;;5033299;28;20022;-83
2023/07/12 07:02:15;;;;;;;3.63;1.42;;;28.00;81.10;;;;;;5033378;28;20029;-83
2023/07/12 07:04:41;;;;;;;3.20;1.60;;;28.10;81.20;;;;;;5022640;22;20432;-82
2023/07/12 07:07:06;;;;;;;3.80;1.83;;;28.10;81.10;;;;;;5014985;28;20377;-87
2023/07/12 07:09:33;;;;;;;3.25;1.35;;;28.20;80.90;;;;;;5027487;28;20029;-87
2023/07/12 07:11:59;;;;;;;2.38;1.10;;;28.30;80.80;;;;;;5026233;28;20036;-86
2023/07/12 07:14:25;;;;;;;2.53;1.13;;;28.40;80.40;;;;;;5012809;28;20018;-88
2023/07/12 07:16:52;;;;;;;3.15;1.45;;;28.40;79.80;;;;;;5011004;28;20021;-88
2023/07/12 07:19:18;;;;;;;5.88;1.83;;;28.50;79.80;;;;;;5014015;28;20043;-88
2023/07/12 07:21:47;;;;;;;4.07;1.17;;;28.50;79.80;;;;;;4993949;28;20154;-88
2023/07/12 07:24:13;;;;;;;4.30;1.60;;;28.60;80.00;;;;;;5004401;28;20034;-87
2023/07/12 07:26:39;;;;;;;5.57;1.50;;;28.60;80.00;;;;;;5004001;28;20018;-87
2023/07/12 07:29:05;;;;;;;4.38;1.52;;;28.60;80.00;;;;;;5005404;28;20026;-87
2023/07/12 07:31:30;;;;;;;3.45;1.38;;;28.70;80.10;;;;;;5013607;28;20030;-87
2023/07/12 07:33:56;;;;;;;4.22;2.28;;;28.80;80.50;;;;;;5013268;28;20021;-84
2023/07/12 07:36:22;;;;;;;4.60;1.98;;;28.80;80.10;;;;;;5013714;28;20022;-87
2023/07/12 07:38:48;;;;;;;10.73;1.60;;;28.80;80.30;;;;;;4996181;28;20034;-87
2023/07/12 07:41:15;;;;;;;5.75;1.73;;;28.80;80.20;;;;;;5023362;28;20036;-88
2023/07/12 07:43:41;;;;;;;6.55;1.63;;;28.70;80.50;;;;;;5017299;28;20018;-87
2023/07/12 07:46:08;;;;;;;7.00;2.03;;;28.70;80.80;;;;;;5014421;28;20061;-87
2023/07/12 07:48:34;;;;;;;7.45;1.65;;;28.60;80.90;;;;;;5014165;28;20030;-87
2023/07/12 07:51:00;;;;;;;6.20;1.70;;;28.60;81.40;;;;;;4996421;28;20399;-88
2023/07/12 07:53:26;;;;;;;9.40;2.17;;;28.60;81.70;;;;;;4993117;28;20026;-88
2023/07/12 07:55:52;;;;;;;7.07;1.92;;;28.60;81.90;;;;;;4994185;28;20037;-88
2023/07/12 07:58:19;;;;;;;4.15;1.42;;;28.60;81.90;;;;;;4993071;28;20037;-83
2023/07/12 08:00:44;;;;;;;8.15;1.77;;;28.70;82.00;;;;;;4994209;28;20031;-83
2023/07/12 08:03:11;;;;;;;4.97;1.50;;;28.70;81.80;;;;;;5001831;28;20046;-83
2023/07/12 08:05:37;;;;;;;7.07;1.83;;;28.70;81.80;;;;;;5012952;28;20030;-83
2023/07/12 08:08:03;;;;;;;4.03;1.40;;;28.70;81.90;;;;;;5012289;28;20044;-83
2023/07/12 08:10:29;;;;;;;4.90;1.50;;;28.70;82.10;;;;;;5012970;28;20048;-83
2023/07/12 08:12:56;;;;;;;9.98;2.13;;;28.70;82.10;;;;;;5012871;28;20045;-83
2023/07/12 08:15:23;;;;;;;7.50;2.20;;;28.60;81.80;;;;;;4995513;28;20034;-82
2023/07/12 08:17:49;;;;;;;6.35;1.38;;;28.60;82.00;;;;;;5013080;28;20026;-83
2023/07/12 08:20:15;;;;;;;4.53;1.60;;;28.60;82.00;;;;;;5012993;28;20053;-82
2023/07/12 08:22:40;;;;;;;7.63;1.83;;;28.60;82.00;;;;;;5012990;28;20397;-82
2023/07/12 08:25:07;;;;;;;6.50;1.77;;;28.60;82.30;;;;;;5012835;28;20032;-82
2023/07/12 08:27:33;;;;;;;3.63;1.50;;;28.60;81.90;;;;;;5013184;28;20045;-83
2023/07/12 08:30:00;;;;;;;8.48;2.10;;;28.60;81.70;;;;;;4994343;28;20038;-82
2023/07/12 08:32:27;;;;;;;6.25;2.13;;;28.60;81.20;;;;;;4995266;28;20112;-82
2023/07/12 08:34:54;;;;;;;4.32;1.45;;;28.60;80.70;;;;;;5013054;28;20018;-82
2023/07/12 08:37:20;;;;;;;8.00;2.28;;;28.70;81.30;;;;;;5013550;28;20073;-83
2023/07/12 08:39:46;;;;;;;6.35;2.17;;;28.70;81.10;;;;;;5013232;28;20438;-81
2023/07/12 08:42:18;;;;;;;5.40;1.83;;;28.80;80.70;;;;;;5013282;28;20485;-82
2023/07/12 08:44:44;;;;;;;6.35;1.63;;;28.80;80.50;;;;;;5013881;28;20482;-82
2023/07/12 08:47:17;;;;;;;2.60;1.05;;;28.80;80.40;;;;;;5013915;28;20054;-82
2023/07/12 08:49:43;;;;;;;7.10;1.58;;;28.90;80.10;;;;;;5013209;28;20067;-82
2023/07/12 08:52:17;;;;;;;4.38;1.85;;;28.90;78.70;;;;;;5012304;28;20363;-83
2023/07/12 08:54:43;;;;;;;4.88;1.60;;;28.90;78.50;;;;;;5012265;28;20545;-82
2023/07/12 08:57:15;;;;;;;6.18;1.50;;;28.90;78.40;;;;;;5012675;28;20044;-82
2023/07/12 08:59:42;;;;;;;5.93;1.40;;;28.80;76.20;;;;;;5012148;28;20029;-82
2023/07/12 09:02:20;;;;;;;3.70;1.52;;;28.70;77.00;;;;;;5011865;28;20434;-83
2023/07/12 09:04:46;;;;;;;3.80;1.55;;;28.70;76.50;;;;;;5012720;28;20048;-82
2023/07/12 09:07:30;;;;;;;7.53;1.58;;;28.70;76.30;;;;;;5012842;28;20109;-82
2023/07/12 09:09:58;;;;;;;4.47;1.95;;;28.70;76.80;;;;;;5000924;28;20048;-82
2023/07/12 09:12:32;;;;;;;3.70;1.48;;;28.70;76.70;;;;;;5015013;28;20057;-82
2023/07/12 09:15:03;;;;;;;5.15;1.33;;;28.70;77.00;;;;;;5013958;28;20036;-82
2023/07/12 09:17:34;;;;;;;3.75;1.40;;;28.90;77.60;;;;;;5020053;28;20029;-82
2023/07/12 09:20:01;;;;;;;7.70;2.28;;;29.00;77.20;;;;;;5014796;28;20375;-83
2023/07/12 09:22:29;;;;;;;4.18;1.42;;;29.20;76.90;;;;;;5012065;28;20041;-82
2023/07/12 09:24:56;;;;;;;4.68;1.40;;;29.30;76.70;;;;;;5009033;28;20030;-83
2023/07/12 09:27:27;;;;;;;3.22;1.42;;;29.50;76.40;;;;;;4999570;28;20049;-83
2023/07/12 09:30:05;;;;;;;4.78;1.50;;;29.60;76.40;;;;;;5013677;28;20112;-82
2023/07/12 09:32:36;;;;;;;9.15;2.25;;;29.80;76.00;;;;;;5015655;28;20065;-90
2023/07/12 09:35:25;;;;;;;4.43;1.75;;;30.00;76.10;;;;;;5020205;28;20536;-88
2023/07/12 09:38:08;;;;;;;6.57;1.70;;;30.20;75.10;;;;;;5013398;28;20022;-88
2023/07/12 09:40:43;;;;;;;3.83;1.52;;;30.40;74.30;;;;;;4993802;28;20076;-88
2023/07/12 09:43:24;;;;;;;6.25;1.75;;;30.50;74.20;;;;;;5015108;28;20029;-89
2023/07/12 09:46:05;;;;;;;2.80;1.40;;;30.70;72.70;;;;;;5003974;28;20375;-90
2023/07/12 09:48:52;;;;;;;3.40;1.10;;;30.70;73.20;;;;;;5008716;28;20026;-90
2023/07/12 09:51:47;;;;;;;3.50;1.20;;;30.70;72.40;;;;;;4984320;28;20474;-88
2023/07/12 09:54:37;;;;;;;5.38;1.65;;;30.90;72.60;;;;;;5012917;28;20117;-88
2023/07/12 09:57:17;;;;;;;2.22;1.40;;;30.90;72.10;;;;;;5017035;28;20036;-89
2023/07/12 09:59:51;;;;;;;4.55;1.65;;;31.00;71.90;;;;;;4999335;28;20537;-89
2023/07/12 10:02:31;;;;;;;1.73;1.30;;;31.10;72.10;;;;;;5002688;28;20501;-88
2023/07/12 10:05:25;;;;;;;6.28;1.60;;;31.20;72.30;;;;;;5016980;28;20038;-90
2023/07/12 10:08:01;;;;;;;4.72;2.28;;;31.30;72.50;;;;;;5015708;28;20092;-89
2023/07/12 10:10:38;;;;;;;3.83;2.10;;;31.50;72.60;;;;;;5015947;28;20109;-89
2023/07/12 10:13:41;;;;;;;6.28;2.03;;;31.60;72.50;;;;;;5010519;28;20077;-89
2023/07/12 10:16:28;;;;;;;8.52;2.30;;;31.80;71.40;;;;;;5009738;28;20058;-89
2023/07/12 10:18:55;;;;;;;4.85;2.25;;;31.90;71.30;;;;;;4996234;28;20018;-89
2023/07/12 10:21:24;;;;;;;9.18;2.95;;;32.10;71.50;;;;;;4991902;28;20113;-88
2023/07/12 10:23:59;;;;;;;5.22;2.35;;;32.10;71.30;;;;;;5019528;28;20100;-88
2023/07/12 10:26:25;;;;;;;3.67;2.25;;;32.30;71.50;;;;;;5022871;28;20026;-88
2023/07/12 10:29:09;;;;;;;7.05;2.50;;;32.40;70.40;;;;;;5025316;28;20520;-88
2023/07/12 10:31:47;;;;;;;5.55;2.28;;;32.50;70.00;;;;;;5003858;28;20030;-87
2023/07/12 10:34:38;;;;;;;6.40;2.45;;;32.70;69.70;;;;;;5014784;28;20026;-88
2023/07/12 10:37:19;;;;;;;4.75;2.28;;;32.80;69.70;;;;;;5015080;28;20069;-81
2023/07/12 10:39:46;;;;;;;6.45;2.63;;;32.90;69.50;;;;;;5010689;28;20552;-81
2023/07/12 10:42:30;;;;;;;6.57;2.65;;;33.10;68.90;;;;;;5002288;28;20040;-82
2023/07/12 10:44:58;;;;;;;7.10;2.85;;;33.30;68.90;;;;;;5005627;28;20030;-82
2023/07/12 10:47:34;;;;;;;3.83;2.45;;;33.50;68.70;;;;;;5014045;28;20104;-82
2023/07/12 10:50:09;;;;;;;4.50;2.25;;;33.50;67.90;;;;;;5018086;28;20057;-82
2023/07/12 10:53:13;;;;;;;6.72;2.70;;;33.60;67.70;;;;;;5019842;28;20028;-81
2023/07/12 10:56:02;;;;;;;4.63;2.60;;;33.80;67.50;;;;;;5014784;28;20486;-81
2023/07/12 10:58:46;;;;;;;5.85;2.25;;;34.00;67.60;;;;;;5008562;28;20036;-82
2023/07/12 11:01:45;;;;;;;5.53;2.28;;;34.10;66.70;;;;;;5030020;28;20025;-81
2023/07/12 11:04:33;;;;;;;4.78;2.33;;;34.30;66.00;;;;;;5006628;28;20096;-82
2023/07/12 11:07:01;;;;;;;4.88;2.50;;;34.40;66.10;;;;;;4993669;28;20434;-83
2023/07/12 11:12:16;;;;;;;5.47;2.50;;;34.60;65.30;;;;;;4995874;28;20027;-81
2023/07/12 11:15:21;;;;;;;4.85;2.17;;;34.70;65.60;;;;;;5002964;28;20057;-82
2023/07/12 11:18:20;;;;;;;9.98;3.05;;;34.90;64.30;;;;;;4988614;28;20150;-82
2023/07/12 11:20:59;;;;;;;5.82;2.88;;;35.00;64.00;;;;;;4994309;28;20026;-82
2023/07/12 11:23:40;;;;;;;6.53;2.80;;;35.20;63.80;;;;;;4993672;28;20118;-82
2023/07/12 11:26:18;;;;;;;8.45;2.40;;;35.30;63.60;;;;;;4992510;28;20022;-82
2023/07/12 11:28:44;;;;;;;5.35;2.28;;;35.40;63.10;;;;;;4993222;28;20038;-82
2023/07/12 11:31:15;;;;;;;9.15;2.45;;;35.60;63.20;;;;;;4993931;28;20033;-82
2023/07/12 11:33:50;;;;;;;4.45;2.35;;;35.80;63.00;;;;;;4993587;28;20034;-82
2023/07/12 11:36:21;;;;;;;5.43;2.13;;;36.00;63.00;;;;;;4988512;28;20376;-82
2023/07/12 11:38:51;;;;;;;5.82;2.80;;;36.20;62.30;;;;;;4993188;28;20056;-82
2023/07/12 11:41:18;;;;;;;;;;;36.50;62.70;;;;;;4993811;28;20019;-82
2023/07/12 11:43:44;;;;;;;5.88;2.58;;;36.80;61.90;;;;;;4994072;28;20362;-82
2023/07/12 11:46:22;;;;;;;8.88;2.50;;;37.10;61.30;;;;;;4995294;28;20034;-82
2023/07/12 11:48:59;;;;;;;5.88;2.40;;;37.50;59.80;;;;;;5000396;28;20030;-82
2023/07/12 11:51:35;;;;;;;5.43;2.60;;;37.70;58.90;;;;;;4993925;28;20104;-82
2023/07/12 11:54:15;;;;;;;6.78;2.60;;;37.90;58.10;;;;;;4994986;28;20036;-88
2023/07/12 11:56:41;;;;;;;4.20;2.53;;;38.10;58.20;;;;;;5003056;28;20023;-88
2023/07/12 11:59:16;;;;;;;6.85;2.55;;;38.30;57.00;;;;;;4997883;28;20179;-88
2023/07/12 12:01:47;;;;;;;6.85;2.65;;;38.40;56.70;;;;;;4976704;28;20541;-88
2023/07/12 12:04:33;;;;;;;5.32;2.42;;;38.50;56.50;;;;;;4995913;28;20034;-88
2023/07/12 12:07:07;;;;;;;4.40;2.65;;;38.60;55.20;;;;;;5004379;28;20045;-88
2023/07/12 12:09:35;;;;;;;7.38;2.58;;;38.80;54.70;;;;;;4998007;28;20061;-89
2023/07/12 12:12:06;;;;;;;8.10;2.75;;;38.80;54.80;;;;;;4993495;28;20041;-88
2023/07/12 12:14:40;;;;;;;9.77;2.67;;;38.80;53.80;;;;;;4994196;28;20033;-90
2023/07/12 12:17:37;;;;;;;4.13;2.33;;;38.90;54.00;;;;;;4989696;28;20181;-90
2023/07/12 12:20:11;;;;;;;9.27;2.88;;;39.00;52.90;;;;;;4975844;28;20030;-90
2023/07/12 12:22:40;;;;;;;3.47;2.42;;;39.20;53.90;;;;;;4992807;28;20475;-91
2023/07/12 12:25:15;;;;;;;5.65;2.50;;;39.30;52.70;;;;;;5002945;28;20038;-91
2023/07/12 12:27:43;;;;;;;7.28;2.85;;;39.40;52.70;;;;;;4984611;28;20113;-91
2023/07/12 12:30:15;;;;;;;5.28;2.70;;;39.50;52.80;;;;;;4974095;28;20390;-91
2023/07/12 12:32:43;;;;;;;5.53;2.50;;;39.60;52.20;;;;;;5006081;28;20037;-91
2023/07/12 12:35:13;;;;;;;4.25;2.50;;;39.70;51.40;;;;;;4993751;28;20033;-91
2023/07/12 12:37:39;;;;;;;8.75;3.05;;;39.80;51.70;;;;;;4995192;28;20034;-91
2023/07/12 12:40:33;;;;;;;7.60;3.00;;;39.80;51.00;;;;;;5008788;28;20033;-91
2023/07/12 12:43:01;;;;;;;6.68;2.63;;;39.80;50.60;;;;;;4985527;28;20046;-91
2023/07/12 12:45:33;;;;;;;5.03;2.22;;;39.80;51.80;;;;;;4986492;28;20034;-91
2023/07/12 12:48:00;;;;;;;7.13;2.53;;;39.80;52.00;;;;;;4994406;28;20538;-91
2023/07/12 12:50:26;;;;;;;3.33;2.22;;;39.80;51.20;;;;;;4974145;28;20379;-91
2023/07/12 12:52:56;;;;;;;4.03;2.25;;;39.80;51.20;;;;;;4971848;28;20034;-91
2023/07/12 12:55:22;;;;;;;4.85;2.00;;;39.70;51.60;;;;;;4983721;28;20050;-91
2023/07/12 12:57:48;;;;;;;3.17;1.80;;;39.70;52.70;;;;;;5009678;28;20033;-91
2023/07/12 13:00:20;;;;;;;5.10;2.30;;;39.60;52.80;;;;;;4996586;28;20506;-91
2023/07/12 13:02:46;;;;;;;4.75;2.28;;;39.70;52.40;;;;;;4993845;28;20335;-91